createdAt,value
2022-09-21T00:03:25.283Z,97090.22
2022-09-21T00:08:32.571Z,97083.97
2022-09-21T00:13:42.005Z,97075.13
2022-09-21T00:18:45.365Z,97081.88
2022-09-21T00:23:49.138Z,97085.22
2022-09-21T00:28:54.579Z,97081.69
2022-09-21T00:33:58.538Z,97081.19
2022-09-21T00:39:02.434Z,97080.72
2022-09-21T00:44:31.778Z,97074.47
2022-09-21T00:49:36.276Z,97076.19
2022-09-21T00:54:45.698Z,97078.09
2022-09-21T00:59:52.406Z,97082.22
2022-09-21T01:04:56.835Z,97070.84
2022-09-21T01:10:06.824Z,97072.28
2022-09-21T01:15:32.452Z,97075.00
2022-09-21T01:21:06.800Z,97074.19
2022-09-21T01:26:19.240Z,97062.59
2022-09-21T01:31:25.887Z,97066.56
2022-09-21T01:36:31.790Z,97074.72
2022-09-21T01:41:36.706Z,97065.44
2022-09-21T01:46:40.210Z,97071.19
2022-09-21T01:51:50.543Z,97066.66
2022-09-21T01:57:07.833Z,97066.19
2022-09-21T02:02:18.653Z,97066.97
2022-09-21T02:07:22.501Z,97068.09
2022-09-21T02:12:25.815Z,97064.81
2022-09-21T02:17:34.051Z,97066.25
2022-09-21T02:22:51.660Z,97070.09
2022-09-21T02:28:07.530Z,97067.66
2022-09-21T02:33:23.321Z,97064.13
2022-09-21T02:38:44.487Z,97056.91
2022-09-21T02:43:56.187Z,97066.94
2022-09-21T02:49:06.104Z,97066.47
2022-09-21T02:54:14.226Z,97060.22
2022-09-21T02:59:17.734Z,97069.00
2022-09-21T03:04:20.914Z,97071.72
2022-09-21T03:09:24.852Z,97075.53
2022-09-21T03:14:28.424Z,97077.44
2022-09-21T03:19:31.618Z,97072.22
2022-09-21T03:24:35.594Z,97068.59
2022-09-21T03:29:39.071Z,97072.50
2022-09-21T03:34:42.743Z,97072.59
2022-09-21T03:39:46.120Z,97074.91
2022-09-21T03:44:49.394Z,97081.47
2022-09-21T03:49:52.807Z,97079.53
2022-09-21T03:54:56.678Z,97083.28
2022-09-21T04:00:00.834Z,97078.31
2022-09-21T04:05:13.343Z,97098.75
2022-09-21T04:10:19.713Z,97106.31
2022-09-21T04:15:23.485Z,97099.25
2022-09-21T04:20:27.400Z,97108.75
2022-09-21T04:25:31.428Z,97104.41
2022-09-21T04:30:37.733Z,97105.72
2022-09-21T04:35:41.235Z,97105.47
2022-09-21T04:40:44.493Z,97118.06
2022-09-21T04:45:47.905Z,97101.91
2022-09-21T04:50:51.537Z,97105.66
2022-09-21T04:55:56.175Z,97108.53
2022-09-21T05:01:00.620Z,97103.16
2022-09-21T05:06:04.885Z,97099.22
2022-09-21T05:11:11.648Z,97098.22
2022-09-21T05:16:19.386Z,97111.47
2022-09-21T05:21:23.387Z,97107.44
2022-09-21T05:26:26.796Z,97111.59
2022-09-21T05:31:38.900Z,97111.19
2022-09-21T05:36:50.422Z,97117.25
2022-09-21T05:41:53.981Z,97121.34
2022-09-21T05:48:02.518Z,97131.06
2022-09-21T05:53:30.015Z,97127.69
2022-09-21T05:58:33.051Z,97130.50
2022-09-21T06:03:37.091Z,97143.78
2022-09-21T06:08:42.389Z,97139.84
2022-09-21T06:13:49.711Z,97142.22
2022-09-21T06:18:53.459Z,97142.13
2022-09-21T06:23:56.703Z,97148.81
2022-09-21T06:29:00.228Z,97150.56
2022-09-21T06:34:04.052Z,97154.56
2022-09-21T06:39:07.534Z,97162.69
2022-09-21T06:44:11.376Z,97152.69
2022-09-21T06:49:15.092Z,97167.03
2022-09-21T06:54:18.442Z,97166.78
2022-09-21T06:59:21.697Z,97173.75
2022-09-21T07:04:25.330Z,97167.25
2022-09-21T07:14:52.679Z,97165.38
2022-09-21T07:19:56.386Z,97157.53
2022-09-21T07:25:00.200Z,97156.06
2022-09-21T07:30:04.449Z,97163.91
2022-09-21T07:35:07.936Z,97162.59
2022-09-21T07:40:11.502Z,97164.03
2022-09-21T07:45:15.205Z,97151.16
2022-09-21T07:50:18.611Z,97152.38
2022-09-21T07:55:22.225Z,97151.97
2022-09-21T08:00:28.831Z,97157.78
2022-09-21T08:05:34.697Z,97153.09
2022-09-21T08:10:38.467Z,97146.22
2022-09-21T08:15:49.817Z,97156.13
2022-09-21T08:20:55.771Z,97149.31
2022-09-21T08:26:00.979Z,97149.44
2022-09-21T08:31:07.388Z,97141.53
2022-09-21T08:36:12.074Z,97138.94
2022-09-21T08:41:23.903Z,97132.31
2022-09-21T08:46:31.035Z,97133.03
2022-09-21T08:51:38.686Z,97133.91
2022-09-21T08:57:03.992Z,97133.75
2022-09-21T09:02:24.156Z,97134.41
2022-09-21T09:07:50.315Z,97129.34
2022-09-21T09:13:14.880Z,97129.44
2022-09-21T09:18:29.490Z,97129.50
2022-09-21T09:23:46.983Z,97127.25
2022-09-21T09:29:03.051Z,97127.28
2022-09-21T09:34:34.419Z,97121.81
2022-09-21T09:39:38.902Z,97114.00
2022-09-21T09:44:57.187Z,97108.16
2022-09-21T09:50:06.464Z,97112.19
2022-09-21T09:55:23.910Z,97112.59
2022-09-21T10:00:28.092Z,97114.91
2022-09-21T10:05:37.639Z,97107.22
2022-09-21T10:10:43.927Z,97092.91
2022-09-21T10:15:57.146Z,97095.19
2022-09-21T10:21:28.706Z,97087.06
2022-09-21T10:26:44.532Z,97092.72
2022-09-21T10:32:03.359Z,97085.09
2022-09-21T10:37:29.479Z,97081.75
2022-09-21T10:42:42.198Z,97073.25
2022-09-21T10:47:58.169Z,97075.47
2022-09-21T10:53:32.389Z,97067.69
2022-09-21T10:58:36.511Z,97080.13
2022-09-21T11:03:58.197Z,97074.28
2022-09-21T11:09:08.905Z,97072.59
2022-09-21T11:14:50.211Z,97072.81
2022-09-21T11:20:21.750Z,97075.03
2022-09-21T11:25:36.567Z,97067.06
2022-09-21T11:31:07.444Z,97071.22
2022-09-21T11:36:34.115Z,97083.31
2022-09-21T11:41:41.534Z,97072.00
2022-09-21T11:46:59.387Z,97075.16
2022-09-21T11:52:21.321Z,97085.03
2022-09-21T11:57:35.302Z,97072.59
2022-09-21T12:03:26.024Z,97069.81
2022-09-21T12:09:03.347Z,97071.75
2022-09-21T12:14:43.898Z,97071.59
2022-09-21T12:20:00.370Z,97075.06
2022-09-21T12:25:26.357Z,97067.00
2022-09-21T12:30:32.284Z,97058.34
2022-09-21T12:35:43.326Z,97068.00
2022-09-21T12:41:18.236Z,97064.50
2022-09-21T12:46:26.363Z,97057.00
2022-09-21T12:51:41.960Z,97055.72
2022-09-21T12:56:54.014Z,97069.09
2022-09-21T13:02:15.265Z,97062.13
2022-09-21T13:07:36.919Z,97065.22
2022-09-21T13:12:44.755Z,97060.44
2022-09-21T13:17:59.768Z,97067.84
2022-09-21T13:23:05.025Z,97068.16
2022-09-21T13:28:17.197Z,97062.56
2022-09-21T13:33:20.555Z,97070.75
2022-09-21T13:38:54.634Z,97074.84
2022-09-21T13:44:01.066Z,97067.19
2022-09-21T13:49:11.029Z,97075.06
2022-09-21T13:54:14.826Z,97077.81
2022-09-21T13:59:25.873Z,97072.00
2022-09-21T14:04:33.735Z,97083.28
2022-09-21T14:09:51.088Z,97083.63
2022-09-21T14:15:18.909Z,97090.56
2022-09-21T14:20:33.604Z,97089.63
2022-09-21T14:25:52.098Z,97093.16
2022-09-21T14:31:01.533Z,97088.66
2022-09-21T14:36:09.851Z,97094.00
2022-09-21T14:41:17.897Z,97097.84
2022-09-21T14:46:45.940Z,97103.78
2022-09-21T14:52:12.557Z,97104.28
2022-09-21T14:57:42.686Z,97111.84
2022-09-21T15:02:47.590Z,97111.84
2022-09-21T15:08:29.456Z,97112.81
2022-09-21T15:13:48.281Z,97116.75
2022-09-21T15:19:02.314Z,97117.41
2022-09-21T15:24:21.231Z,97123.75
2022-09-21T15:29:30.991Z,97135.13
2022-09-21T15:34:34.765Z,97124.38
2022-09-21T15:39:38.099Z,97121.47
2022-09-21T15:44:41.421Z,97124.84
2022-09-21T15:49:44.724Z,97125.28
2022-09-21T15:55:26.320Z,97120.91
2022-09-21T16:00:31.587Z,97126.31
2022-09-21T16:05:53.973Z,97130.78
2022-09-21T16:11:26.960Z,97122.41
2022-09-21T16:16:30.370Z,97130.44
2022-09-21T16:21:37.369Z,97132.66
2022-09-21T16:26:56.783Z,97137.28
2022-09-21T16:32:18.269Z,97134.88
2022-09-21T16:37:27.445Z,97150.66
2022-09-21T16:42:30.881Z,97154.53
2022-09-21T16:47:38.022Z,97154.69
2022-09-21T16:52:41.732Z,97164.50
2022-09-21T16:57:45.617Z,97166.72
2022-09-21T17:02:49.617Z,97173.16
2022-09-21T17:07:55.629Z,97174.06
2022-09-21T17:12:58.987Z,97183.97
2022-09-21T17:18:03.538Z,97184.09
2022-09-21T17:23:06.671Z,97184.09
2022-09-21T17:28:15.464Z,97195.34
2022-09-21T17:33:18.886Z,97196.94
2022-09-21T17:38:22.062Z,97202.59
2022-09-21T17:43:40.058Z,97202.28
2022-09-21T17:48:43.487Z,97200.66
2022-09-21T17:53:47.500Z,97213.00
2022-09-21T17:59:03.717Z,97214.91
2022-09-21T18:04:08.510Z,97218.97
2022-09-21T18:09:12.147Z,97210.91
2022-09-21T18:14:24.576Z,97213.44
2022-09-21T18:19:30.522Z,97224.47
2022-09-21T18:24:34.147Z,97217.22
2022-09-21T18:29:40.468Z,97219.47
2022-09-21T18:34:47.458Z,97223.00
2022-09-21T18:40:32.922Z,97219.94
2022-09-21T18:45:44.160Z,97216.22
2022-09-21T18:51:10.841Z,97217.66
2022-09-21T18:56:15.612Z,97233.53
2022-09-21T19:01:19.813Z,97223.72
2022-09-21T19:06:32.459Z,97209.28
2022-09-21T19:11:57.119Z,97206.88
2022-09-21T19:17:16.699Z,97205.25
2022-09-21T19:22:53.480Z,97219.81
2022-09-21T19:28:10.700Z,97219.63
2022-09-21T19:33:55.918Z,97221.84
2022-09-21T19:38:59.437Z,97229.53
2022-09-21T19:44:35.183Z,97233.25
2022-09-21T19:49:53.023Z,97229.31
2022-09-21T19:54:57.027Z,97224.22
2022-09-21T20:00:01.041Z,97232.56
2022-09-21T20:05:15.215Z,97236.63
2022-09-21T20:10:21.496Z,97234.19
2022-09-21T20:15:34.143Z,97235.31
2022-09-21T20:20:37.575Z,97236.09
2022-09-21T20:25:56.370Z,97246.84
2022-09-21T20:31:00.163Z,97245.03
2022-09-21T20:36:03.469Z,97234.75
2022-09-21T20:41:16.701Z,97232.16
2022-09-21T20:46:24.302Z,97225.69
2022-09-21T20:51:27.883Z,97217.91
2022-09-21T20:56:31.667Z,97221.44
2022-09-21T21:01:35.211Z,97214.38
2022-09-21T21:06:39.159Z,97215.50
2022-09-21T21:11:43.072Z,97211.97
2022-09-21T21:16:47.253Z,97211.66
2022-09-21T21:21:50.814Z,97215.91
2022-09-21T21:27:03.086Z,97218.94
2022-09-21T21:32:07.028Z,97212.97
2022-09-21T21:37:11.760Z,97210.34
2022-09-21T21:42:17.609Z,97212.56
2022-09-21T21:47:38.768Z,97206.63
2022-09-21T21:52:42.826Z,97206.31
2022-09-21T21:57:46.246Z,97198.94
2022-09-21T22:02:49.673Z,97201.06
2022-09-21T22:07:52.695Z,97200.47
2022-09-21T22:12:56.074Z,97196.63
2022-09-21T22:17:59.513Z,97188.22
2022-09-21T22:23:02.689Z,97188.72
2022-09-21T22:28:06.890Z,97197.13
2022-09-21T22:33:10.304Z,97185.72
2022-09-21T22:38:14.250Z,97172.19
2022-09-21T22:43:17.890Z,97164.19
2022-09-21T22:48:23.483Z,97161.19
2022-09-21T22:53:29.857Z,97158.75
2022-09-21T22:58:35.444Z,97155.44
2022-09-21T23:03:40.841Z,97148.97
2022-09-21T23:08:48.603Z,97152.13
2022-09-21T23:13:52.354Z,97149.03
2022-09-21T23:18:58.319Z,97144.28
2022-09-21T23:24:04.091Z,97144.22
2022-09-21T23:29:12.126Z,97147.56
2022-09-21T23:34:19.123Z,97137.47
2022-09-21T23:39:22.641Z,97135.25
2022-09-21T23:44:26.238Z,97133.53
2022-09-21T23:49:29.394Z,97132.72
2022-09-21T23:54:32.787Z,97137.97
2022-09-21T23:59:36.071Z,97135.56
